Time;durP1;ratioP1;P1;durP2;ratioP2;P2;SDS_P1;SDS_P2;PMS_P1;PMS_P2;Temp;Humidity;BMP_temperature;BMP_pressure;BME280_temperature;BME280_humidity;BME280_pressure;Samples;Min_cycle;Max_cycle;Signal;HPM_P1;HPM_P2
2023/11/14 00:00:03;;;;;;;10.98;2.03;;;;;;;11.70;86.25;95949.09;4880085;29;20061;-81
2023/11/14 00:02:33;;;;;;;4.93;1.27;;;;;;;11.70;86.50;95936.03;4881001;29;20547;-81
2023/11/14 00:05:00;;;;;;;8.90;1.92;;;;;;;11.70;86.65;95936.03;4879593;29;20122;-82
2023/11/14 00:07:28;;;;;;;5.10;1.63;;;;;;;11.69;86.96;95926.56;4880691;29;20082;-81
2023/11/14 00:09:57;;;;;;;8.93;2.03;;;;;;;11.67;87.13;95941.66;4881754;29;20053;-81
2023/11/14 00:12:24;;;;;;;6.43;1.38;;;;;;;11.66;86.55;95940.06;4881765;29;20064;-82
2023/11/14 00:14:52;;;;;;;3.38;1.20;;;;;;;11.63;86.36;95941.28;4881911;29;20053;-82
2023/11/14 00:17:20;;;;;;;8.15;1.52;;;;;;;11.63;86.35;95950.91;4878877;29;20053;-81
2023/11/14 00:19:49;;;;;;;7.18;2.40;;;;;;;11.64;86.74;95936.84;4878774;29;20064;-82
2023/11/14 00:22:17;;;;;;;9.10;2.05;;;;;;;11.66;88.06;95960.97;4879635;29;20068;-82
2023/11/14 00:24:45;;;;;;;6.72;1.35;;;;;;;11.66;88.27;95961.75;4878727;29;20095;-82
2023/11/14 00:27:13;;;;;;;6.28;1.80;;;;;;;11.66;88.42;95969.59;4879084;29;20065;-82
2023/11/14 00:29:41;;;;;;;4.20;1.63;;;;;;;11.66;88.62;95971.41;4880104;29;20104;-81
2023/11/14 00:32:09;;;;;;;4.18;1.50;;;;;;;11.64;88.07;95983.88;4879584;29;20065;-82
2023/11/14 00:34:37;;;;;;;6.15;1.60;;;;;;;11.61;87.50;95984.25;4879874;29;20057;-82
2023/11/14 00:37:06;;;;;;;6.72;1.23;;;;;;;11.58;86.81;95982.88;4878795;29;20061;-82
2023/11/14 00:39:34;;;;;;;5.97;1.80;;;;;;;11.59;86.82;95996.72;4879363;29;20460;-82
2023/11/14 00:42:03;;;;;;;5.18;2.25;;;;;;;11.57;86.21;95993.50;4878924;29;20053;-82
2023/11/14 00:44:30;;;;;;;5.80;1.88;;;;;;;11.55;86.22;95997.13;4878251;29;20049;-81
2023/11/14 00:46:58;;;;;;;6.75;1.42;;;;;;;11.56;86.98;95997.94;4877488;29;20088;-81
2023/11/14 00:49:26;;;;;;;6.43;1.58;;;;;;;11.54;85.95;96003.38;4877704;29;20435;-81
2023/11/14 00:51:57;;;;;;;4.32;1.50;;;;;;;11.51;85.97;95995.94;4878820;29;20090;-82
2023/11/14 00:54:26;;;;;;;5.05;1.65;;;;;;;11.49;86.60;95997.94;4874689;29;20049;-82
2023/11/14 00:56:54;;;;;;;7.20;1.90;;;;;;;11.49;86.29;95999.75;4875955;29;20041;-82
2023/11/14 00:59:22;;;;;;;10.13;2.08;;;;;;;11.48;85.35;96008.59;4876254;29;20500;-81
2023/11/14 01:01:49;;;;;;;6.28;2.05;;;;;;;11.44;84.35;96000.38;4882205;29;20077;-82
2023/11/14 01:04:18;;;;;;;7.55;1.85;;;;;;;11.41;84.35;96005.97;4882736;29;20063;-82
2023/11/14 01:06:46;;;;;;;6.63;1.85;;;;;;;11.40;84.37;96004.38;4881022;29;20057;-81
2023/11/14 01:09:14;;;;;;;10.13;2.17;;;;;;;11.40;84.95;95999.16;4876476;29;20057;-81
2023/11/14 01:11:43;;;;;;;7.18;2.40;;;;;;;11.38;84.24;96003.78;4875543;29;20085;-81
2023/11/14 01:14:10;;;;;;;6.55;2.00;;;;;;;11.38;84.29;96013.41;4875698;29;20069;-81
2023/11/14 01:16:38;;;;;;;6.75;2.13;;;;;;;11.38;84.28;96022.06;4875666;29;20500;-81
2023/11/14 01:19:06;;;;;;;5.90;1.58;;;;;;;11.37;84.02;96020.47;4876549;29;20086;-81
2023/11/14 01:21:34;;;;;;;7.07;1.77;;;;;;;11.36;84.31;96012.81;4877292;29;20447;-82
2023/11/14 01:24:01;;;;;;;6.10;1.77;;;;;;;11.34;83.57;96024.25;4877178;29;20084;-82
2023/11/14 01:26:33;;;;;;;12.35;2.20;;;;;;;11.32;82.11;96028.06;4877262;29;20077;-82
2023/11/14 01:29:02;;;;;;;7.35;2.00;;;;;;;11.30;81.96;96020.47;4877240;29;20077;-82
2023/11/14 01:31:30;;;;;;;7.43;1.83;;;;;;;11.27;81.43;96015.63;4877024;29;20090;-82
2023/11/14 01:33:57;;;;;;;8.60;1.70;;;;;;;11.23;81.55;96030.06;4876318;29;20472;-82
2023/11/14 01:36:25;;;;;;;5.43;2.25;;;;;;;11.23;82.21;96034.50;4876325;29;20058;-82
2023/11/14 01:38:53;;;;;;;7.10;2.25;;;;;;;11.21;81.50;96021.63;4876657;29;20073;-82
2023/11/14 01:41:21;;;;;;;6.65;2.22;;;;;;;11.18;81.12;96042.13;4875572;29;20049;-82
2023/11/14 01:43:48;;;;;;;10.15;1.95;;;;;;;11.17;80.21;96043.13;4875299;29;20069;-81
2023/11/14 01:46:18;;;;;;;9.27;2.20;;;;;;;11.13;79.23;96030.47;4874553;29;20110;-82
2023/11/14 01:48:49;;;;;;;8.82;2.50;;;;;;;11.09;79.49;96044.13;4874377;29;20061;-82
2023/11/14 01:51:18;;;;;;;10.43;2.38;;;;;;;11.07;79.14;96046.13;4874274;29;20081;-82
2023/11/14 01:53:46;;;;;;;7.93;1.98;;;;;;;11.05;78.98;96042.91;4874453;29;20082;-82
2023/11/14 01:56:14;;;;;;;7.13;1.55;;;;;;;11.03;79.12;96039.69;4873722;29;20057;-82
2023/11/14 01:58:43;;;;;;;8.40;2.22;;;;;;;11.00;78.83;96047.91;4874509;29;20084;-82
2023/11/14 02:01:13;;;;;;;11.60;2.58;;;;;;;10.96;79.50;96047.50;4874899;29;20077;-81
2023/11/14 02:03:43;;;;;;;8.02;2.67;;;;;;;10.93;79.45;96045.28;4875238;29;20049;-81
2023/11/14 02:06:11;;;;;;;7.63;1.88;;;;;;;10.90;79.19;96058.72;4874364;29;20053;-81
2023/11/14 02:08:39;;;;;;;6.43;2.05;;;;;;;10.88;79.63;96058.91;4875938;29;20064;-81
2023/11/14 02:11:07;;;;;;;8.38;2.08;;;;;;;10.86;79.79;96045.25;4874209;29;20071;-81
2023/11/14 02:13:35;;;;;;;7.05;2.13;;;;;;;10.84;79.64;96052.47;4875701;29;20053;-82
2023/11/14 02:16:04;;;;;;;11.23;2.45;;;;;;;10.81;79.67;96058.09;4874624;29;20053;-82
2023/11/14 02:18:32;;;;;;;6.47;1.45;;;;;;;10.77;79.52;96051.66;4873198;29;20053;-82
2023/11/14 02:21:01;;;;;;;8.80;2.85;;;;;;;10.75;80.37;96045.84;4872193;29;20473;-82
2023/11/14 02:23:34;;;;;;;10.30;1.63;;;;;;;10.75;80.36;96037.22;4875071;29;20056;-81
2023/11/14 02:26:04;;;;;;;9.02;2.58;;;;;;;10.72;79.24;96039.22;4872779;29;20136;-82
2023/11/14 02:28:31;;;;;;;5.68;1.80;;;;;;;10.71;79.96;96036.78;4870384;29;20049;-82
2023/11/14 02:30:59;;;;;;;12.38;1.77;;;;;;;10.68;80.29;96029.38;4871795;29;20057;-82
2023/11/14 02:33:27;;;;;;;8.45;2.00;;;;;;;10.65;79.89;96027.97;4872204;29;20209;-82
2023/11/14 02:35:55;;;;;;;10.45;2.25;;;;;;;10.65;79.97;96035.00;4872864;29;20064;-82
2023/11/14 02:38:22;;;;;;;11.18;2.13;;;;;;;10.62;80.68;96033.56;4872467;29;20049;-82
2023/11/14 02:40:50;;;;;;;10.05;2.28;;;;;;;10.63;80.27;96022.13;4872473;29;20061;-82
2023/11/14 02:43:20;;;;;;;7.57;2.03;;;;;;;10.60;80.50;96030.34;4872868;29;20053;-82
2023/11/14 02:45:48;;;;;;;7.07;1.80;;;;;;;10.59;80.17;96039.16;4872613;29;20144;-82
2023/11/14 02:48:15;;;;;;;6.00;1.90;;;;;;;10.57;79.63;96046.38;4872696;29;20053;-82
2023/11/14 02:50:50;;;;;;;5.68;1.77;;;;;;;10.55;80.05;96053.59;4872200;29;20053;-82
2023/11/14 02:53:19;;;;;;;8.25;1.73;;;;;;;10.53;79.30;96058.19;4872463;29;20050;-82
2023/11/14 02:55:47;;;;;;;7.40;1.77;;;;;;;10.53;80.45;96052.97;4872811;29;20087;-82
2023/11/14 02:58:15;;;;;;;8.10;2.25;;;;;;;10.52;80.73;96049.56;4871956;29;20073;-82
2023/11/14 03:00:48;;;;;;;9.13;1.88;;;;;;;10.49;80.17;96060.41;4872682;29;20159;-82
2023/11/14 03:03:16;;;;;;;10.60;2.33;;;;;;;10.49;80.02;96060.41;4872109;29;20066;-82
2023/11/14 03:05:45;;;;;;;9.68;1.77;;;;;;;10.49;80.96;96054.38;4872168;29;20077;-82
2023/11/14 03:08:13;;;;;;;8.82;1.90;;;;;;;10.48;80.95;96047.56;4871811;29;20049;-82
2023/11/14 03:10:41;;;;;;;12.90;2.08;;;;;;;10.49;81.33;96036.13;4872572;29;20057;-82
2023/11/14 03:13:09;;;;;;;8.13;1.98;;;;;;;10.49;81.26;96041.31;4872276;29;20053;-82
2023/11/14 03:15:37;;;;;;;7.60;1.30;;;;;;;10.49;81.40;96039.56;4872293;29;20137;-82
2023/11/14 03:18:06;;;;;;;9.98;2.50;;;;;;;10.49;80.68;96049.16;4874031;29;20121;-82
2023/11/14 03:20:34;;;;;;;6.25;1.70;;;;;;;10.49;81.24;96041.31;4876994;29;20053;-80
2023/11/14 03:23:02;;;;;;;7.28;1.95;;;;;;;10.49;81.60;96049.16;4887313;29;20070;-80
2023/11/14 03:25:31;;;;;;;11.68;2.30;;;;;;;10.49;81.39;96046.53;4884732;29;20049;-81
2023/11/14 03:27:59;;;;;;;8.60;2.55;;;;;;;10.52;81.74;96056.59;4883098;29;20053;-82
2023/11/14 03:30:27;;;;;;;11.20;1.80;;;;;;;10.51;81.95;96063.59;4882019;29;20311;-81
2023/11/14 03:32:55;;;;;;;6.80;1.95;;;;;;;10.53;82.96;96055.59;4880680;29;20054;-82
2023/11/14 03:35:24;;;;;;;12.68;2.40;;;;;;;10.51;80.82;96054.97;4877607;29;20052;-81
2023/11/14 03:37:52;;;;;;;8.82;2.75;;;;;;;10.49;80.21;96062.19;4874990;29;20049;-81
2023/11/14 03:40:20;;;;;;;10.80;1.90;;;;;;;10.48;81.04;96056.19;4874818;29;20045;-81
2023/11/14 03:42:47;;;;;;;10.50;2.58;;;;;;;10.49;81.94;96064.78;4873736;29;20058;-82
2023/11/14 03:45:15;;;;;;;14.23;2.95;;;;;;;10.47;82.19;96061.56;4875500;29;20081;-82
2023/11/14 03:47:43;;;;;;;9.57;1.95;;;;;;;10.47;81.91;96065.00;4876331;29;20053;-82
2023/11/14 03:50:11;;;;;;;10.10;1.90;;;;;;;10.46;81.50;96073.81;4875717;29;20122;-82
2023/11/14 03:52:40;;;;;;;7.82;2.25;;;;;;;10.46;82.26;96075.63;4875653;29;20050;-82
2023/11/14 03:55:08;;;;;;;6.72;2.17;;;;;;;10.44;82.14;96088.84;4875426;29;20045;-82
2023/11/14 03:57:36;;;;;;;7.10;2.22;;;;;;;10.44;81.24;96093.25;4874429;29;20057;-81
2023/11/14 04:00:05;;;;;;;9.90;2.42;;;;;;;10.44;81.67;96098.47;4875219;29;20132;-82
2023/11/14 04:02:33;;;;;;;8.10;2.58;;;;;;;10.46;82.68;96107.72;4875217;29;20049;-82
2023/11/14 04:05:01;;;;;;;10.40;2.30;;;;;;;10.46;82.15;96119.97;4874857;29;20082;-82
2023/11/14 04:07:28;;;;;;;10.90;1.98;;;;;;;10.45;82.42;96120.94;4875807;29;20054;-82
2023/11/14 04:09:57;;;;;;;8.18;2.65;;;;;;;10.44;82.38;96127.16;4875299;29;20133;-81
2023/11/14 04:12:25;;;;;;;11.05;1.92;;;;;;;10.44;81.92;96124.56;4873679;29;20057;-82
2023/11/14 04:14:53;;;;;;;8.93;2.88;;;;;;;10.44;82.48;96111.53;4874653;29;20076;-82
2023/11/14 04:17:21;;;;;;;10.55;2.80;;;;;;;10.45;81.77;96118.31;4874446;29;20080;-82
2023/11/14 04:19:49;;;;;;;11.88;2.30;;;;;;;10.45;81.98;96126.16;4874076;29;20078;-82
2023/11/14 04:22:18;;;;;;;5.82;1.83;;;;;;;10.45;82.26;96136.59;4874905;29;20053;-82
2023/11/14 04:24:45;;;;;;;12.73;2.63;;;;;;;10.45;82.65;96126.16;4874789;29;20046;-82
2023/11/14 04:27:14;;;;;;;8.18;1.88;;;;;;;10.46;83.13;96127.78;4874201;29;20105;-82
2023/11/14 04:29:42;;;;;;;10.90;2.30;;;;;;;10.45;82.61;96113.94;4871660;29;20057;-82
2023/11/14 04:32:09;;;;;;;9.38;2.30;;;;;;;10.44;82.58;96104.50;4873373;29;20141;-82
2023/11/14 04:34:37;;;;;;;12.13;2.42;;;;;;;10.44;82.94;96093.25;4873910;29;20504;-82
2023/11/14 04:37:05;;;;;;;7.00;2.13;;;;;;;10.44;83.69;96107.09;4874210;29;20065;-82
2023/11/14 04:39:32;;;;;;;7.20;2.47;;;;;;;10.45;83.00;96105.28;4875191;29;20093;-81
2023/11/14 04:42:00;;;;;;;12.63;3.35;;;;;;;10.44;83.41;96114.13;4875507;29;20049;-82
2023/11/14 04:44:29;;;;;;;11.38;2.72;;;;;;;10.44;84.18;96121.94;4875728;29;20069;-81
2023/11/14 04:46:58;;;;;;;7.97;2.47;;;;;;;10.42;83.96;96131.75;4875045;29;20084;-82
2023/11/14 12:14:59;;;;;;;3.03;0.80;;;;;;;12.05;67.82;96096.03;5071224;23;20060;-82
2023/11/14 12:17:27;;;;;;;2.83;0.80;;;;;;;12.03;65.55;96090.19;4873895;29;20077;-82
2023/11/14 12:19:55;;;;;;;3.40;0.82;;;;;;;12.05;65.77;96116.94;4875193;29;20057;-82
2023/11/14 12:22:22;;;;;;;3.83;0.85;;;;;;;12.06;64.55;96112.50;4875053;29;20086;-82
2023/11/14 12:24:50;;;;;;;5.65;0.70;;;;;;;12.07;66.97;96109.69;4875218;29;20057;-82
2023/11/14 16:27:44;;;;;;;3.20;1.10;;;;;;;10.71;78.57;95937.66;5356031;23;20066;-81
2023/11/14 16:30:12;;;;;;;1.48;1.10;;;;;;;10.67;78.77;95920.81;4882241;29;20057;-81
2023/11/14 16:32:41;;;;;;;6.13;1.00;;;;;;;10.65;79.33;95917.63;4882011;29;20082;-80
2023/11/14 16:35:09;;;;;;;3.05;0.85;;;;;;;10.63;78.68;95914.41;4882271;29;20128;-81
2023/11/14 16:37:36;;;;;;;2.92;0.90;;;;;;;10.59;78.05;95914.00;4882064;29;20057;-80
